createdAt,value
2017-11-04T00:01:10.926Z,26.48
2017-11-04T00:03:39.460Z,26.83
2017-11-04T00:06:08.074Z,25.50
2017-11-04T00:08:36.539Z,24.95
2017-11-04T00:11:05.184Z,24.98
2017-11-04T00:13:33.801Z,25.20
2017-11-04T00:16:02.226Z,26.23
2017-11-04T00:18:30.697Z,23.52
2017-11-04T00:21:00.188Z,26.70
2017-11-04T00:23:28.695Z,27.77
2017-11-04T00:25:57.364Z,28.60
2017-11-04T00:28:26.082Z,28.75
2017-11-04T00:30:54.592Z,28.62
2017-11-04T00:33:22.995Z,29.70
2017-11-04T00:35:51.360Z,27.55
2017-11-04T00:38:19.740Z,28.73
2017-11-04T00:40:48.139Z,29.63
2017-11-04T00:43:16.527Z,30.45
2017-11-04T00:45:44.884Z,30.23
2017-11-04T00:48:13.248Z,30.85
2017-11-04T00:50:41.608Z,29.55
2017-11-04T00:53:10.004Z,29.40
2017-11-04T00:55:38.379Z,29.10
2017-11-04T00:58:06.754Z,29.80
2017-11-04T01:00:35.150Z,30.42
2017-11-04T01:03:03.509Z,27.98
2017-11-04T01:05:31.872Z,27.77
2017-11-04T01:08:00.278Z,27.58
2017-11-04T01:10:28.644Z,27.35
2017-11-04T01:12:57.112Z,29.25
2017-11-04T01:15:25.490Z,28.50
2017-11-04T01:17:53.852Z,28.67
2017-11-04T01:20:22.962Z,31.52
2017-11-04T01:22:51.336Z,29.05
2017-11-04T01:25:19.692Z,28.85
2017-11-04T01:27:48.052Z,27.20
2017-11-04T01:30:16.432Z,27.58
2017-11-04T01:32:44.825Z,26.55
2017-11-04T01:35:13.203Z,26.73
2017-11-04T01:37:41.594Z,25.50
2017-11-04T01:40:09.956Z,26.83
2017-11-04T01:42:38.340Z,27.02
2017-11-04T01:45:06.702Z,26.42
2017-11-04T01:47:35.138Z,25.90
2017-11-04T01:50:03.543Z,25.50
2017-11-04T01:52:31.932Z,26.70
2017-11-04T01:55:00.311Z,26.87
2017-11-04T01:57:28.689Z,26.70
2017-11-04T01:59:57.072Z,26.42
2017-11-04T02:02:25.438Z,25.45
2017-11-04T02:04:53.832Z,25.10
2017-11-04T02:07:22.197Z,24.25
2017-11-04T02:09:50.556Z,24.02
2017-11-04T02:12:18.937Z,23.55
2017-11-04T02:14:47.301Z,25.62
2017-11-04T02:17:15.700Z,27.90
2017-11-04T02:19:44.098Z,24.92
2017-11-04T02:22:12.460Z,22.58
2017-11-04T02:24:40.855Z,22.73
2017-11-04T02:27:09.253Z,24.75
2017-11-04T02:29:37.628Z,23.60
2017-11-04T02:32:06.110Z,24.40
2017-11-04T02:34:34.491Z,24.83
2017-11-04T02:37:02.855Z,24.92
2017-11-04T02:39:31.211Z,28.02
2017-11-04T02:41:59.718Z,28.65
2017-11-04T02:44:28.092Z,27.80
2017-11-04T02:46:56.450Z,25.08
2017-11-04T02:49:24.843Z,24.65
2017-11-04T02:51:53.215Z,26.10
2017-11-04T02:54:21.608Z,25.02
2017-11-04T02:56:50.005Z,25.40
2017-11-04T02:59:18.397Z,24.12
2017-11-04T03:01:46.764Z,24.75
2017-11-04T03:04:15.126Z,26.92
2017-11-04T03:06:43.510Z,26.08
2017-11-04T03:09:11.878Z,24.63
2017-11-04T03:11:40.268Z,25.42
2017-11-04T03:14:08.677Z,26.12
2017-11-04T03:16:37.045Z,26.92
2017-11-04T03:19:05.455Z,26.17
2017-11-04T03:21:33.817Z,26.58
2017-11-04T03:24:02.201Z,25.20
2017-11-04T03:26:30.575Z,25.52
2017-11-04T03:28:58.940Z,26.10
2017-11-04T03:31:27.334Z,26.58
2017-11-04T03:33:55.708Z,27.58
2017-11-04T03:36:24.108Z,27.45
2017-11-04T03:38:52.475Z,25.05
2017-11-04T03:41:20.845Z,26.75
2017-11-04T03:43:49.204Z,26.90
2017-11-04T03:46:17.588Z,25.25
2017-11-04T03:48:45.985Z,24.63
2017-11-04T03:51:14.372Z,26.80
2017-11-04T03:53:42.734Z,26.60
2017-11-04T03:56:11.085Z,26.23
2017-11-04T03:58:39.455Z,27.55
2017-11-04T04:01:07.838Z,27.27
2017-11-04T04:03:36.218Z,26.67
2017-11-04T04:06:04.584Z,27.40
2017-11-04T04:08:32.963Z,26.67
2017-11-04T04:11:01.337Z,25.90
2017-11-04T04:13:29.810Z,26.90
2017-11-04T04:15:58.172Z,27.90
2017-11-04T04:18:26.536Z,24.87
2017-11-04T04:20:54.899Z,27.52
2017-11-04T04:23:23.258Z,26.20
2017-11-04T04:25:51.676Z,24.50
2017-11-04T04:28:20.043Z,25.90
2017-11-04T04:30:48.417Z,23.13
2017-11-04T04:33:16.770Z,23.60
2017-11-04T04:35:45.124Z,23.50
2017-11-04T04:38:13.506Z,23.93
2017-11-04T04:40:41.990Z,23.20
2017-11-04T04:43:10.376Z,24.83
2017-11-04T04:45:38.726Z,25.40
2017-11-04T04:48:07.094Z,27.00
2017-11-04T04:50:35.455Z,26.73
2017-11-04T04:53:03.853Z,27.37
2017-11-04T04:55:32.214Z,27.70
2017-11-04T04:58:00.609Z,27.33
2017-11-04T05:00:29.004Z,27.80
2017-11-04T05:02:57.387Z,26.23
2017-11-04T05:05:25.748Z,25.67
2017-11-04T05:07:54.135Z,24.57
2017-11-04T05:10:22.495Z,27.37
2017-11-04T05:12:50.858Z,26.13
2017-11-04T05:15:19.210Z,27.57
2017-11-04T05:17:47.611Z,27.67
2017-11-04T05:20:15.957Z,26.07
2017-11-04T05:22:44.335Z,27.00
2017-11-04T05:25:12.839Z,26.30
2017-11-04T05:27:41.192Z,27.20
2017-11-04T05:30:09.555Z,25.87
2017-11-04T05:32:37.907Z,25.40
2017-11-04T05:35:06.266Z,27.43
2017-11-04T05:37:34.659Z,26.90
2017-11-04T05:40:03.059Z,25.70
2017-11-04T05:42:31.410Z,28.13
2017-11-04T05:44:59.903Z,26.60
2017-11-04T05:47:28.256Z,26.23
2017-11-04T05:49:56.627Z,25.23
2017-11-04T05:52:25.037Z,26.97
2017-11-04T05:54:53.387Z,25.50
2017-11-04T05:57:21.747Z,26.00
2017-11-04T05:59:50.129Z,27.13
2017-11-04T06:02:18.517Z,26.50
2017-11-04T06:04:46.868Z,28.57
2017-11-04T06:07:15.230Z,28.63
2017-11-04T06:09:43.698Z,28.37
2017-11-04T06:12:12.051Z,26.30
2017-11-04T06:14:40.411Z,26.90
2017-11-04T06:17:08.773Z,29.43
2017-11-04T06:19:37.139Z,29.47
2017-11-04T06:22:05.652Z,31.13
2017-11-04T06:24:34.034Z,30.30
2017-11-04T06:27:02.411Z,27.73
2017-11-04T06:29:30.759Z,31.10
2017-11-04T06:31:59.142Z,31.00
2017-11-04T06:34:27.536Z,28.80
2017-11-04T06:36:56.674Z,29.20
2017-11-04T06:39:25.261Z,29.93
2017-11-04T06:41:53.625Z,30.47
2017-11-04T06:44:21.978Z,29.23
2017-11-04T06:46:50.345Z,30.30
2017-11-04T06:49:18.710Z,29.07
2017-11-04T06:51:47.091Z,29.23
2017-11-04T06:54:15.490Z,28.27
2017-11-04T06:56:43.867Z,28.33
2017-11-04T06:59:12.255Z,27.07
2017-11-04T07:01:40.608Z,28.90
2017-11-04T07:04:08.997Z,31.70
2017-11-04T07:06:37.370Z,32.40
2017-11-04T07:09:05.747Z,31.07
2017-11-04T07:11:34.098Z,31.13
2017-11-04T07:14:02.555Z,29.90
2017-11-04T07:16:30.899Z,29.10
2017-11-04T07:18:59.259Z,32.07
2017-11-04T07:21:27.649Z,31.13
2017-11-04T07:23:55.999Z,32.80
2017-11-04T07:26:24.368Z,33.43
2017-11-04T07:28:53.600Z,32.00
2017-11-04T07:31:21.983Z,32.43
2017-11-04T07:33:50.336Z,32.00
2017-11-04T07:36:18.691Z,34.47
2017-11-04T07:38:47.085Z,33.23
2017-11-04T07:41:15.441Z,31.40
2017-11-04T07:43:43.842Z,31.40
2017-11-04T07:46:12.239Z,32.67
2017-11-04T07:48:40.623Z,32.83
2017-11-04T07:51:08.992Z,33.40
2017-11-04T07:53:37.385Z,30.80
2017-11-04T07:56:05.752Z,27.40
2017-11-04T07:58:34.223Z,28.63
2017-11-04T08:01:02.602Z,27.80
2017-11-04T08:03:30.953Z,27.00
2017-11-04T08:05:59.356Z,29.27
2017-11-04T08:08:27.735Z,29.20
2017-11-04T08:10:56.112Z,28.27
2017-11-04T08:13:24.492Z,28.50
2017-11-04T08:15:52.867Z,27.00
2017-11-04T08:18:21.334Z,27.63
2017-11-04T08:20:49.700Z,27.60
2017-11-04T08:23:18.089Z,27.10
2017-11-04T08:25:46.456Z,27.10
2017-11-04T08:28:14.844Z,26.57
2017-11-04T08:30:45.294Z,26.27
2017-11-04T08:33:13.657Z,26.00
2017-11-04T08:35:42.053Z,26.07
2017-11-04T08:38:10.460Z,25.47
2017-11-04T08:40:38.822Z,25.00
2017-11-04T08:43:07.197Z,27.50
2017-11-04T08:45:35.632Z,26.27
2017-11-04T08:48:04.029Z,25.73
2017-11-04T08:50:32.396Z,27.63
2017-11-04T08:53:00.769Z,26.57
2017-11-04T08:55:29.138Z,24.63
2017-11-04T08:57:57.508Z,26.20
2017-11-04T09:00:25.895Z,26.40
2017-11-04T09:02:54.275Z,26.63
2017-11-04T09:05:24.587Z,26.67
2017-11-04T09:07:53.028Z,27.50
2017-11-04T13:21:49.875Z,11.93
2017-11-04T13:24:18.342Z,12.00
2017-11-04T13:26:46.721Z,11.27
2017-11-04T13:29:15.099Z,11.60
2017-11-04T13:31:43.452Z,12.10
2017-11-04T13:34:11.819Z,12.03
2017-11-04T13:36:40.196Z,12.53
2017-11-04T13:39:08.578Z,14.30
2017-11-04T13:41:36.981Z,14.63
2017-11-04T13:44:05.522Z,14.20
2017-11-04T13:46:33.876Z,13.80
2017-11-04T13:49:02.279Z,14.00
2017-11-04T13:51:30.644Z,15.60
2017-11-04T13:53:58.999Z,16.50
2017-11-04T13:56:27.367Z,15.83
2017-11-04T13:58:55.734Z,16.60
2017-11-04T14:01:24.979Z,17.00
2017-11-04T14:03:53.331Z,16.10
2017-11-04T14:06:21.718Z,16.00
2017-11-04T14:08:50.111Z,15.80
2017-11-04T14:11:18.468Z,15.80
2017-11-04T14:13:46.820Z,17.37
2017-11-04T14:16:15.192Z,18.33
2017-11-04T14:18:43.550Z,16.87
2017-11-04T14:21:13.333Z,17.57
2017-11-04T14:23:41.743Z,17.70
2017-11-04T14:26:10.259Z,20.67
2017-11-04T14:28:38.762Z,19.77
2017-11-04T14:31:07.128Z,21.07
2017-11-04T14:33:35.539Z,21.07
2017-11-04T14:36:03.906Z,21.93
2017-11-04T14:38:32.277Z,21.87
2017-11-04T14:41:00.663Z,22.80
2017-11-04T14:43:29.030Z,22.60
2017-11-04T14:45:57.385Z,21.97
2017-11-04T14:48:25.760Z,22.67
2017-11-04T14:50:54.173Z,21.67
2017-11-04T14:53:22.515Z,20.23
2017-11-04T14:55:50.931Z,22.07
2017-11-04T14:58:19.331Z,20.20
2017-11-04T15:00:47.713Z,22.50
2017-11-04T15:03:16.079Z,20.67
2017-11-04T15:05:44.434Z,20.70
2017-11-04T15:08:12.795Z,20.73
2017-11-04T15:10:41.155Z,21.17
2017-11-04T15:13:09.528Z,19.73
2017-11-04T15:15:37.880Z,20.17
2017-11-04T15:18:06.245Z,20.37
2017-11-04T15:20:34.632Z,20.20
2017-11-04T15:23:03.019Z,19.90
2017-11-04T15:25:31.430Z,20.00
2017-11-04T15:27:59.795Z,18.27
2017-11-04T15:30:28.164Z,17.93
2017-11-04T15:32:56.565Z,17.57
2017-11-04T15:35:24.936Z,18.90
2017-11-04T15:37:53.296Z,18.17
2017-11-04T15:40:21.660Z,17.03
2017-11-04T15:42:50.103Z,17.73
2017-11-04T15:45:18.512Z,17.73
2017-11-04T15:47:46.873Z,17.30
2017-11-04T15:50:15.241Z,16.73
2017-11-04T15:52:43.599Z,16.03
2017-11-04T15:55:11.968Z,17.20
2017-11-04T15:57:40.427Z,17.33
2017-11-04T16:00:09.724Z,18.30
2017-11-04T16:02:38.212Z,17.77
2017-11-04T16:05:06.584Z,18.30
2017-11-04T16:07:35.052Z,18.70
2017-11-04T16:10:03.466Z,19.30
2017-11-04T16:12:31.840Z,19.50
2017-11-04T16:15:00.250Z,21.00
2017-11-04T16:17:28.654Z,19.83
2017-11-04T16:19:57.007Z,20.57
2017-11-04T16:22:25.415Z,21.73
2017-11-04T16:24:53.789Z,21.07
2017-11-04T16:27:22.185Z,21.30
2017-11-04T16:29:50.557Z,21.03
2017-11-04T16:32:18.969Z,20.87
2017-11-04T16:34:47.339Z,20.10
2017-11-04T16:37:15.704Z,19.07
2017-11-04T16:39:44.067Z,20.13
2017-11-04T16:42:12.440Z,18.73
2017-11-04T16:44:40.831Z,19.80
2017-11-04T16:47:09.187Z,20.47
2017-11-04T16:49:37.576Z,20.43
2017-11-04T16:52:05.956Z,20.70
2017-11-04T16:54:34.341Z,19.10
2017-11-04T16:57:02.732Z,20.30
2017-11-04T16:59:31.101Z,20.63
2017-11-04T17:01:59.456Z,21.27
2017-11-04T17:04:29.546Z,21.80
2017-11-04T17:06:57.940Z,19.97
2017-11-04T17:09:26.358Z,21.93
2017-11-04T17:11:54.721Z,22.80
2017-11-04T17:14:23.108Z,21.80
2017-11-04T17:16:51.481Z,23.20
2017-11-04T17:19:19.829Z,23.70
2017-11-04T17:21:48.238Z,22.10
2017-11-04T17:24:16.642Z,24.50
2017-11-04T17:26:45.033Z,24.30
2017-11-04T17:29:13.405Z,22.43
2017-11-04T17:31:41.909Z,23.70
2017-11-04T17:34:10.325Z,22.40
2017-11-04T17:36:38.674Z,24.50
2017-11-04T17:39:07.049Z,22.47
2017-11-04T17:41:35.414Z,22.67
2017-11-04T17:44:03.791Z,23.27
2017-11-04T17:46:32.325Z,24.17
2017-11-04T17:49:00.869Z,24.20
2017-11-04T17:51:29.346Z,25.47
2017-11-04T17:53:57.699Z,26.53
2017-11-04T17:56:26.121Z,26.00
2017-11-04T17:58:54.602Z,25.63
2017-11-04T18:01:23.006Z,24.23
2017-11-04T18:03:51.380Z,24.10
2017-11-04T18:06:19.778Z,24.20
2017-11-04T18:08:48.157Z,23.83
2017-11-04T18:11:16.551Z,23.47
2017-11-04T18:13:44.961Z,24.53
2017-11-04T18:16:13.406Z,24.10
2017-11-04T18:18:41.784Z,24.00
2017-11-04T18:21:10.229Z,23.43
2017-11-04T18:23:38.592Z,25.60
2017-11-04T18:26:07.037Z,28.00
2017-11-04T18:28:35.395Z,24.80
2017-11-04T18:31:03.812Z,25.87
2017-11-04T18:33:33.107Z,26.80
2017-11-04T18:36:01.489Z,25.27
2017-11-04T18:38:29.916Z,26.70
2017-11-04T18:40:58.283Z,25.17
2017-11-04T18:43:26.704Z,26.40
2017-11-04T18:45:55.074Z,25.83
2017-11-04T18:48:23.571Z,24.40
2017-11-04T18:50:51.938Z,26.10
2017-11-04T18:53:20.337Z,26.60
2017-11-04T18:55:48.690Z,26.67
2017-11-04T18:58:17.068Z,28.23
2017-11-04T19:00:45.509Z,26.20
2017-11-04T19:03:13.892Z,26.57
2017-11-04T19:05:42.265Z,26.80
2017-11-04T19:08:10.625Z,26.47
2017-11-04T19:10:39.122Z,25.90
2017-11-04T19:13:07.592Z,24.97
2017-11-04T19:15:35.960Z,25.37
2017-11-04T19:18:04.344Z,23.70
2017-11-04T19:20:32.744Z,24.23
2017-11-04T19:23:01.124Z,24.10
2017-11-04T19:25:29.491Z,26.10
2017-11-04T19:27:57.865Z,24.90
2017-11-04T19:30:26.248Z,25.10
2017-11-04T19:32:54.671Z,24.13
2017-11-04T19:35:23.028Z,23.00
2017-11-04T19:37:51.396Z,24.37
2017-11-04T19:40:19.771Z,23.57
2017-11-04T19:42:48.141Z,22.70
2017-11-04T19:45:16.521Z,23.77
2017-11-04T19:47:44.919Z,23.10
2017-11-04T19:50:13.321Z,21.27
2017-11-04T19:52:41.722Z,22.83
2017-11-04T19:55:10.079Z,22.00
2017-11-04T19:57:38.567Z,20.60
2017-11-04T20:00:06.984Z,21.63
2017-11-04T20:02:35.468Z,21.67
2017-11-04T20:05:03.833Z,21.40
2017-11-04T20:07:32.229Z,23.10
2017-11-04T20:10:00.594Z,23.07
2017-11-04T20:12:28.979Z,22.63
2017-11-04T20:14:57.373Z,20.80
2017-11-04T20:17:25.769Z,21.67
2017-11-04T20:19:54.134Z,18.90
2017-11-04T20:22:22.551Z,20.63
2017-11-04T20:24:50.922Z,22.30
2017-11-04T20:27:19.329Z,21.57
2017-11-04T20:29:47.706Z,19.63
2017-11-04T20:32:16.272Z,20.10
2017-11-04T20:34:44.644Z,20.17
2017-11-04T20:37:13.120Z,17.70
2017-11-04T20:39:41.620Z,19.70
2017-11-04T20:42:10.014Z,18.07
2017-11-04T20:44:38.404Z,15.70
2017-11-04T20:47:06.801Z,15.33
2017-11-04T20:49:35.258Z,16.87
2017-11-04T20:52:03.676Z,15.97
2017-11-04T20:54:32.049Z,18.23
2017-11-04T20:57:00.420Z,16.67
2017-11-04T20:59:28.825Z,16.90
2017-11-04T21:01:57.284Z,18.17
2017-11-04T21:04:25.634Z,18.80
2017-11-04T21:06:53.999Z,16.90
2017-11-04T21:09:22.369Z,16.70
2017-11-04T21:11:50.759Z,14.90
2017-11-04T21:14:19.339Z,15.70
2017-11-04T21:16:47.711Z,13.13
2017-11-04T21:19:16.078Z,12.60
2017-11-04T21:21:44.494Z,10.37
2017-11-04T21:24:12.869Z,11.10
2017-11-04T21:26:41.383Z,10.37
2017-11-04T21:29:09.810Z,9.70
2017-11-04T21:31:38.168Z,10.13
2017-11-04T21:34:06.568Z,11.20
2017-11-04T21:36:35.018Z,10.20
2017-11-04T21:39:04.649Z,10.13
2017-11-04T21:41:33.185Z,9.87
2017-11-04T21:44:01.862Z,11.07
2017-11-04T21:46:30.245Z,10.73
2017-11-04T21:48:58.643Z,11.13
2017-11-04T21:51:27.016Z,10.70
2017-11-04T21:53:55.446Z,11.03
2017-11-04T21:56:23.872Z,11.77
2017-11-04T21:58:52.261Z,11.80
2017-11-04T22:01:20.676Z,12.23
2017-11-04T22:03:49.065Z,11.03
2017-11-04T22:06:17.492Z,11.00
2017-11-04T22:08:45.890Z,11.77
2017-11-04T22:11:14.294Z,11.10
2017-11-04T22:13:42.691Z,11.27
2017-11-04T22:16:11.072Z,10.40
2017-11-04T22:18:39.432Z,10.13
2017-11-04T22:21:07.796Z,9.63
2017-11-04T22:23:36.172Z,9.70
2017-11-04T22:26:04.552Z,9.83
2017-11-04T22:28:32.929Z,10.63
2017-11-04T22:31:01.332Z,11.13
2017-11-04T22:33:29.729Z,10.30
2017-11-04T22:35:58.085Z,11.07
2017-11-04T22:38:26.453Z,9.80
2017-11-04T22:40:54.959Z,11.37
2017-11-04T22:43:23.339Z,11.27
2017-11-04T22:45:51.744Z,11.00
2017-11-04T22:48:20.108Z,9.87
2017-11-04T22:50:48.459Z,11.10
2017-11-04T22:53:16.843Z,10.67
2017-11-04T22:55:45.204Z,11.60
2017-11-04T22:58:13.574Z,11.53
2017-11-04T23:00:41.938Z,11.47
2017-11-04T23:03:10.324Z,11.50
2017-11-04T23:05:38.692Z,11.33
2017-11-04T23:08:07.060Z,11.33
2017-11-04T23:10:35.441Z,11.17
2017-11-04T23:13:03.833Z,11.00
2017-11-04T23:15:32.224Z,11.47
2017-11-04T23:18:00.608Z,11.43
2017-11-04T23:20:28.987Z,11.50
2017-11-04T23:22:57.353Z,11.90
2017-11-04T23:25:25.752Z,11.17
2017-11-04T23:27:54.113Z,12.17
2017-11-04T23:30:22.497Z,12.03
2017-11-04T23:32:50.868Z,12.23
2017-11-04T23:35:19.220Z,12.60
2017-11-04T23:37:47.596Z,11.90
2017-11-04T23:40:15.978Z,12.93
2017-11-04T23:42:44.338Z,11.93
2017-11-04T23:45:12.727Z,11.20
2017-11-04T23:47:41.088Z,11.47
2017-11-04T23:50:09.480Z,11.23
2017-11-04T23:52:37.848Z,10.63
2017-11-04T23:55:06.232Z,10.33
2017-11-04T23:57:34.597Z,9.90
